Time;durP1;ratioP1;P1;durP2;ratioP2;P2;SDS_P1;SDS_P2;PMS_P1;PMS_P2;Temp;Humidity;BMP_temperature;BMP_pressure;BME280_temperature;BME280_humidity;BME280_pressure;Samples;Min_cycle;Max_cycle;Signal;HPM_P1;HPM_P2
2024/01/30 00:05:09;;;;;;;5.85;2.92;;;;;;;10.37;100.00;101863.72;10605874;27;20047;-78
2024/01/30 00:10:32;;;;;;;6.35;1.95;;;;;;;10.83;100.00;101882.88;10590343;27;20286;-79
2024/01/30 00:15:56;;;;;;;12.68;3.13;;;;;;;10.72;100.00;101887.78;10594990;27;20059;-77
2024/01/30 00:21:18;;;;;;;4.10;2.05;;;;;;;10.72;95.85;101874.56;10610915;27;20054;-78
2024/01/30 00:26:41;;;;;;;8.27;3.08;;;;;;;10.70;93.63;101879.78;10613379;27;20466;-77
2024/01/30 00:32:05;;;;;;;6.68;2.47;;;;;;;10.84;85.21;101872.31;10582577;27;20533;-78
2024/01/30 00:37:28;;;;;;;4.75;2.30;;;;;;;10.76;90.73;101860.63;10607000;27;20043;-77
2024/01/30 00:42:50;;;;;;;5.45;2.22;;;;;;;10.78;89.12;101864.19;10605675;27;20660;-77
2024/01/30 00:48:14;;;;;;;11.93;2.38;;;;;;;10.75;89.74;101874.69;10617610;27;20495;-76
2024/01/30 00:53:37;;;;;;;8.93;4.40;;;;;;;10.66;92.50;101870.00;10590154;27;20483;-77
2024/01/30 00:58:59;;;;;;;10.32;2.88;;;;;;;10.83;90.92;101869.66;10611036;27;20043;-77
2024/01/30 01:04:23;;;;;;;8.95;3.22;;;;;;;11.08;93.21;101893.38;10617781;27;20043;-77
2024/01/30 01:09:46;;;;;;;7.88;2.60;;;;;;;10.83;95.81;101888.16;10599637;27;20047;-78
2024/01/30 01:15:10;;;;;;;4.18;1.48;;;;;;;9.68;100.00;101892.84;10605634;27;20145;-75
2024/01/30 01:20:34;;;;;;;5.03;2.05;;;;;;;8.48;100.00;101881.03;10631250;27;20565;-78
2024/01/30 01:25:57;;;;;;;12.52;3.17;;;;;;;8.29;100.00;101854.75;10633794;27;20034;-77
2024/01/30 01:31:22;;;;;;;17.77;5.25;;;;;;;8.97;100.00;101849.72;10606648;27;20137;-77
2024/01/30 01:36:46;;;;;;;14.70;6.20;;;;;;;9.25;100.00;101859.59;10627524;27;20563;-77
2024/01/30 01:42:08;;;;;;;13.13;4.82;;;;;;;9.46;100.00;101841.06;10637012;27;20051;-78
2024/01/30 01:47:32;;;;;;;9.77;2.85;;;;;;;9.58;100.00;101837.13;10617977;27;20491;-78
2024/01/30 01:52:56;;;;;;;10.20;2.40;;;;;;;9.82;100.00;101860.88;10629095;27;20205;-77
2024/01/30 01:58:20;;;;;;;5.22;2.00;;;;;;;9.91;100.00;101863.81;10593570;27;20050;-77
2024/01/30 02:03:43;;;;;;;8.80;2.25;;;;;;;9.83;100.00;101848.59;10604589;27;20046;-78
2024/01/30 02:09:09;;;;;;;7.55;1.80;;;;;;;9.66;100.00;101854.97;10605381;27;20463;-78
2024/01/30 02:14:31;;;;;;;10.50;2.22;;;;;;;9.80;100.00;101843.19;10596523;27;20049;-78
2024/01/30 02:19:54;;;;;;;6.70;2.65;;;;;;;9.99;100.00;101819.25;10615060;27;20046;-78
2024/01/30 02:25:18;;;;;;;7.97;2.20;;;;;;;9.79;100.00;101831.75;10592949;27;20146;-76
2024/01/30 02:30:40;;;;;;;5.60;1.63;;;;;;;9.70;100.00;101833.16;10621993;27;20058;-79
2024/01/30 02:36:03;;;;;;;7.03;2.72;;;;;;;9.92;100.00;101830.44;10627642;27;20046;-78
2024/01/30 02:41:27;;;;;;;3.70;1.67;;;;;;;9.73;100.00;101839.44;10614981;27;20510;-78
2024/01/30 02:46:49;;;;;;;2.83;1.63;;;;;;;9.73;100.00;101820.97;10602754;27;20538;-78
2024/01/30 02:52:12;;;;;;;13.70;4.80;;;;;;;9.72;100.00;101815.63;10544358;27;20075;-78
2024/01/30 02:57:36;;;;;;;5.88;2.00;;;;;;;9.94;100.00;101807.66;10542867;27;20070;-77
2024/01/30 03:02:59;;;;;;;9.40;3.55;;;;;;;9.43;100.00;101802.31;10581798;27;20101;-78
2024/01/30 03:08:22;;;;;;;6.22;2.42;;;;;;;8.89;100.00;101808.13;10576451;27;20035;-77
2024/01/30 03:13:46;;;;;;;5.63;1.50;;;;;;;9.23;100.00;101794.50;10580414;27;20044;-77
2024/01/30 03:19:09;;;;;;;4.25;2.20;;;;;;;9.30;100.00;101791.28;10587044;27;20054;-76
2024/01/30 03:24:31;;;;;;;6.10;1.98;;;;;;;9.13;100.00;101773.09;10578372;27;20046;-78
2024/01/30 03:29:55;;;;;;;9.80;2.75;;;;;;;9.25;100.00;101754.22;10592779;27;20044;-78
2024/01/30 03:35:20;;;;;;;6.45;2.13;;;;;;;9.60;100.00;101768.66;10601294;27;20051;-77
2024/01/30 03:40:42;;;;;;;8.80;2.45;;;;;;;9.91;100.00;101762.72;10603496;27;20116;-79
2024/01/30 03:46:07;;;;;;;15.23;2.70;;;;;;;10.18;100.00;101752.22;10590447;27;20062;-78
2024/01/30 03:51:29;;;;;;;11.43;2.38;;;;;;;9.83;100.00;101745.75;10618046;27;20077;-77
2024/01/30 03:56:52;;;;;;;7.85;2.10;;;;;;;9.79;100.00;101744.72;10600710;27;20057;-77
2024/01/30 04:02:16;;;;;;;4.20;1.63;;;;;;;10.04;100.00;101754.38;10610319;27;20038;-78
2024/01/30 04:07:38;;;;;;;8.38;2.40;;;;;;;9.73;100.00;101746.25;10610969;27;20130;-78
2024/01/30 04:13:01;;;;;;;6.43;1.88;;;;;;;9.57;100.00;101772.09;10598985;27;20039;-78
2024/01/30 04:19:10;;;;;;;6.68;2.05;;;;;;;9.79;100.00;101768.47;10598957;27;20043;-78
2024/01/30 04:24:35;;;;;;;10.35;2.00;;;;;;;9.98;100.00;101772.63;10609032;27;20138;-78
2024/01/30 04:29:57;;;;;;;9.50;1.33;;;;;;;10.05;100.00;101782.53;10644902;27;20062;-77
2024/01/30 04:35:23;;;;;;;7.10;1.70;;;;;;;9.86;100.00;101762.56;10598802;27;20057;-77
2024/01/30 04:40:47;;;;;;;9.20;1.60;;;;;;;10.02;100.00;101771.91;10596109;27;20046;-77
2024/01/30 04:46:10;;;;;;;8.45;1.92;;;;;;;9.89;100.00;101764.41;10641314;27;20043;-77
2024/01/30 04:51:32;;;;;;;10.30;1.90;;;;;;;9.80;100.00;101753.53;10593772;27;20138;-76
2024/01/30 04:56:56;;;;;;;8.98;2.05;;;;;;;9.59;100.00;101774.75;10606091;27;20053;-77
2024/01/30 05:02:19;;;;;;;7.53;1.60;;;;;;;9.23;100.00;101778.72;10612476;27;20054;-76
2024/01/30 05:07:42;;;;;;;3.08;1.20;;;;;;;8.85;100.00;101772.00;10610753;27;20055;-77
2024/01/30 05:13:09;;;;;;;8.10;1.63;;;;;;;8.69;100.00;101800.34;10634914;27;20078;-77
2024/01/30 05:18:31;;;;;;;8.45;1.40;;;;;;;8.55;100.00;101801.53;10632290;27;20521;-76
2024/01/30 05:23:54;;;;;;;10.65;2.30;;;;;;;9.01;100.00;101793.69;10614613;27;20433;-77
2024/01/30 05:29:18;;;;;;;8.27;2.40;;;;;;;8.98;100.00;101762.00;10610584;27;20045;-78
2024/01/30 05:34:40;;;;;;;8.45;2.47;;;;;;;9.10;100.00;101751.00;10629973;27;20115;-77
2024/01/30 05:40:04;;;;;;;4.55;1.90;;;;;;;9.30;100.00;101763.19;10620682;27;20053;-76
2024/01/30 05:45:28;;;;;;;12.30;1.90;;;;;;;9.47;100.00;101763.78;10634554;27;20082;-76
2024/01/30 05:50:51;;;;;;;8.30;2.00;;;;;;;9.73;100.00;101781.44;10608496;27;20067;-75
2024/01/30 05:56:13;;;;;;;9.07;2.42;;;;;;;9.30;100.00;101773.72;10611170;27;20099;-76
2024/01/30 06:01:37;;;;;;;16.30;5.85;;;;;;;9.00;100.00;101783.09;10626114;27;20499;-77
2024/01/30 06:07:01;;;;;;;12.65;2.75;;;;;;;8.85;100.00;101779.91;10590813;27;20479;-76
2024/01/30 06:12:24;;;;;;;6.82;2.35;;;;;;;9.18;100.00;101774.19;10613244;27;20321;-77
2024/01/30 06:17:49;;;;;;;7.70;1.90;;;;;;;9.47;100.00;101779.59;10589512;27;20039;-77
2024/01/30 06:23:12;;;;;;;5.72;1.85;;;;;;;9.76;100.00;101764.84;10612207;27;20075;-76
2024/01/30 06:28:35;;;;;;;3.10;1.75;;;;;;;10.57;100.00;101769.34;10609058;27;20085;-77
2024/01/30 06:34:01;;;;;;;7.97;2.97;;;;;;;10.61;100.00;101789.72;10581887;27;20049;-76
2024/01/30 06:39:25;;;;;;;11.38;2.50;;;;;;;10.03;100.00;101765.78;10592343;27;20043;-76
2024/01/30 06:44:47;;;;;;;9.30;3.95;;;;;;;10.03;100.00;101749.06;10621837;27;20043;-76
2024/01/30 06:50:11;;;;;;;8.32;2.35;;;;;;;10.33;100.00;101755.38;10613640;27;20083;-76
2024/01/30 06:55:34;;;;;;;11.23;3.97;;;;;;;10.42;100.00;101753.03;10617762;27;20047;-77
2024/01/30 07:00:57;;;;;;;13.63;6.38;;;;;;;10.43;100.00;101748.66;10596543;27;20043;-76
2024/01/30 07:06:22;;;;;;;12.68;5.72;;;;;;;10.68;100.00;101745.94;10603588;27;20497;-77
2024/01/30 07:11:44;;;;;;;13.77;8.93;;;;;;;10.89;100.00;101738.66;10593023;27;20050;-76
2024/01/30 07:17:07;;;;;;;7.78;6.18;;;;;;;11.58;100.00;101731.84;10585632;27;20549;-77
2024/01/30 07:22:34;;;;;;;6.00;3.83;;;;;;;11.66;96.96;101742.63;10591082;27;20506;-76
2024/01/30 07:27:57;;;;;;;6.47;4.13;;;;;;;13.32;89.54;101744.88;10575629;27;20059;-77
2024/01/30 07:33:20;;;;;;;7.43;5.07;;;;;;;16.52;61.61;101745.78;10621373;27;20058;-77
2024/01/30 07:38:43;;;;;;;9.40;4.70;;;;;;;14.36;73.33;101737.00;10593303;27;20042;-76
2024/01/30 07:44:06;;;;;;;6.50;2.80;;;;;;;12.53;94.21;101737.81;10592878;27;20055;-76
2024/01/30 07:49:29;;;;;;;9.40;5.25;;;;;;;12.05;89.48;101744.53;10597738;27;20047;-76
2024/01/30 07:54:53;;;;;;;7.40;5.15;;;;;;;12.29;79.70;101745.16;10596121;27;20075;-76
2024/01/30 08:00:17;;;;;;;15.95;7.25;;;;;;;12.81;71.46;101741.94;10605643;27;20142;-77
2024/01/30 08:05:40;;;;;;;9.10;5.78;;;;;;;12.92;64.48;101736.91;10594899;27;20047;-77
2024/01/30 08:11:05;;;;;;;8.75;4.32;;;;;;;13.55;60.29;101732.94;10595932;27;20043;-76
2024/01/30 08:16:27;;;;;;;18.38;9.95;;;;;;;13.22;65.05;101747.28;10578180;27;20047;-75
2024/01/30 08:21:50;;;;;;;15.20;6.55;;;;;;;13.26;78.35;101743.84;10593408;27;20043;-77
2024/01/30 08:27:14;;;;;;;10.38;3.92;;;;;;;12.95;83.04;101744.91;10597211;27;20041;-76
2024/01/30 08:32:36;;;;;;;16.33;8.65;;;;;;;12.23;96.64;101751.19;10581688;27;20039;-76
2024/01/30 08:37:59;;;;;;;7.50;4.03;;;;;;;11.68;100.00;101740.03;10591394;27;20051;-77
2024/01/30 08:43:23;;;;;;;10.30;4.18;;;;;;;11.31;100.00;101756.59;10603017;27;20047;-76
2024/01/30 08:48:45;;;;;;;12.35;7.57;;;;;;;12.54;100.00;101747.50;10586426;27;20054;-77
2024/01/30 08:54:08;;;;;;;10.90;7.68;;;;;;;12.94;98.08;101736.06;10599139;27;20137;-77
2024/01/30 08:59:33;;;;;;;5.05;3.80;;;;;;;12.97;88.69;101725.53;10587860;27;20049;-77
2024/01/30 09:04:56;;;;;;;5.70;3.40;;;;;;;12.71;88.04;101751.47;10617276;27;20043;-77
2024/01/30 09:10:19;;;;;;;16.88;7.03;;;;;;;11.14;100.00;101757.03;10614585;27;20039;-76
2024/01/30 09:15:43;;;;;;;9.85;8.50;;;;;;;10.26;100.00;101767.47;10602170;27;20045;-76
2024/01/30 09:21:06;;;;;;;11.15;9.75;;;;;;;9.81;100.00;101771.16;10587466;27;20159;-76
2024/01/30 09:26:29;;;;;;;15.85;9.48;;;;;;;9.22;100.00;101766.38;10588533;27;20105;-76
2024/01/30 09:31:53;;;;;;;11.25;5.95;;;;;;;8.66;100.00;101763.34;10575166;27;20045;-75
2024/01/30 09:37:17;;;;;;;27.48;23.70;;;;;;;8.29;100.00;101765.31;10614351;27;20039;-74
2024/01/30 09:42:44;;;;;;;19.45;12.27;;;;;;;8.30;100.00;101756.59;10598815;27;20074;-74
2024/01/30 09:48:08;;;;;;;27.42;20.80;;;;;;;8.76;100.00;101743.56;10599034;27;20394;-73
2024/01/30 09:53:31;;;;;;;13.55;7.70;;;;;;;9.44;100.00;101738.25;10561318;28;20146;-73
2024/01/30 09:58:54;;;;;;;17.80;4.30;;;;;;;10.63;100.00;101722.00;10557181;28;20043;-73
2024/01/30 10:04:18;;;;;;;18.40;11.95;;;;;;;12.83;100.00;101712.84;10584464;28;20138;-73
2024/01/30 10:09:40;;;;;;;14.55;3.85;;;;;;;12.04;100.00;101722.47;10601434;28;20047;-73
2024/01/30 10:15:03;;;;;;;12.38;3.47;;;;;;;12.41;100.00;101713.66;10592640;28;20125;-72
2024/01/30 10:20:27;;;;;;;16.13;4.43;;;;;;;12.26;100.00;101700.97;10595809;28;20043;-71
2024/01/30 10:25:52;;;;;;;11.02;3.78;;;;;;;12.44;100.00;101689.91;10611726;28;20043;-72
2024/01/30 10:31:18;;;;;;;14.77;4.60;;;;;;;13.04;100.00;101690.34;10590796;27;20513;-72
2024/01/30 10:36:44;;;;;;;8.35;4.63;;;;;;;12.78;100.00;101680.97;10582395;28;20625;-72
2024/01/30 10:42:07;;;;;;;7.72;3.65;;;;;;;12.97;100.00;101671.63;10598543;28;20050;-72
2024/01/30 10:47:31;;;;;;;7.03;3.72;;;;;;;13.03;100.00;101680.59;10562344;28;20141;-71
2024/01/30 10:52:56;;;;;;;9.73;3.13;;;;;;;13.49;100.00;101700.09;10559793;28;20043;-71
2024/01/30 10:58:19;;;;;;;7.72;2.67;;;;;;;14.26;100.00;101698.78;10560835;27;20055;-71
2024/01/30 11:03:43;;;;;;;7.18;2.80;;;;;;;13.06;100.00;101723.06;10579012;27;20050;-71
2024/01/30 11:09:12;;;;;;;9.73;6.07;;;;;;;13.21;100.00;101717.22;10589997;27;20051;-71
2024/01/30 11:14:35;;;;;;;6.22;2.58;;;;;;;11.56;100.00;101708.84;10567381;27;20055;-71
2024/01/30 11:20:00;;;;;;;8.57;5.30;;;;;;;10.61;100.00;101688.50;10580847;27;20055;-73
2024/01/30 11:25:25;;;;;;;7.25;4.25;;;;;;;11.75;100.00;101683.81;10581251;27;20135;-72
2024/01/30 11:30:50;;;;;;;8.60;4.40;;;;;;;14.49;100.00;101663.72;10594621;27;20079;-72
2024/01/30 11:36:16;;;;;;;7.65;3.97;;;;;;;15.32;100.00;101666.53;10605935;27;20047;-73
2024/01/30 11:41:42;;;;;;;6.85;3.83;;;;;;;14.11;100.00;101666.66;10568321;27;20054;-73
2024/01/30 11:47:05;;;;;;;12.80;7.97;;;;;;;12.21;100.00;101651.41;10580006;27;20059;-72
2024/01/30 11:52:29;;;;;;;13.52;8.80;;;;;;;11.39;100.00;101649.34;10559658;27;20054;-73
2024/01/30 11:57:57;;;;;;;8.93;4.75;;;;;;;12.01;100.00;101629.78;10563052;27;20043;-72
2024/01/30 12:03:20;;;;;;;7.15;3.38;;;;;;;12.57;100.00;101599.28;10572370;27;20043;-74
2024/01/30 12:08:42;;;;;;;7.78;4.60;;;;;;;12.83;100.00;101593.59;10553773;27;20047;-73
2024/01/30 12:14:06;;;;;;;5.63;2.95;;;;;;;12.73;100.00;101585.47;10564021;27;20047;-73
2024/01/30 12:19:29;;;;;;;14.52;10.02;;;;;;;12.73;100.00;101572.22;10606044;27;20047;-73
2024/01/30 12:24:51;;;;;;;5.43;3.70;;;;;;;12.81;100.00;101567.06;10600136;27;20054;-73
2024/01/30 12:30:16;;;;;;;4.63;4.03;;;;;;;12.99;100.00;101548.00;10582374;27;20054;-71
2024/01/30 12:35:39;;;;;;;8.02;4.18;;;;;;;13.70;100.00;101551.00;10605050;27;20071;-73
2024/01/30 12:41:02;;;;;;;7.18;4.10;;;;;;;13.69;100.00;101552.75;10592688;27;20040;-72
2024/01/30 12:46:30;;;;;;;6.75;3.13;;;;;;;13.32;100.00;101561.88;10549153;27;20096;-73
2024/01/30 12:51:52;;;;;;;8.50;3.65;;;;;;;12.75;100.00;101564.31;10560546;27;20087;-72
2024/01/30 12:57:14;;;;;;;7.15;3.63;;;;;;;12.51;100.00;101580.59;10571978;27;20410;-72
2024/01/30 13:02:39;;;;;;;5.68;3.92;;;;;;;12.58;100.00;101592.22;10604848;27;20061;-72
2024/01/30 13:08:01;;;;;;;7.80;3.97;;;;;;;12.62;100.00;101588.75;10611119;27;20043;-72
2024/01/30 13:13:24;;;;;;;8.52;4.05;;;;;;;12.66;100.00;101602.13;10601177;27;20043;-72
2024/01/30 13:18:48;;;;;;;5.50;2.50;;;;;;;12.62;100.00;101592.31;10611915;27;20061;-72
2024/01/30 13:24:10;;;;;;;4.75;3.38;;;;;;;12.66;100.00;101591.53;10552835;27;20051;-72
2024/01/30 13:29:33;;;;;;;10.73;5.13;;;;;;;13.14;100.00;101594.25;10613362;27;20051;-72
2024/01/30 13:34:57;;;;;;;8.77;4.30;;;;;;;13.33;100.00;101598.13;10600316;27;20070;-72
2024/01/30 13:40:22;;;;;;;7.10;3.90;;;;;;;13.34;100.00;101599.91;10569590;27;20082;-71
2024/01/30 13:45:45;;;;;;;7.13;5.28;;;;;;;13.35;100.00;101600.81;10563559;27;20054;-72
2024/01/30 13:51:10;;;;;;;11.70;4.72;;;;;;;13.47;100.00;101612.53;10567487;28;20518;-73
2024/01/30 13:56:33;;;;;;;9.02;3.45;;;;;;;13.67;100.00;101612.84;10580761;28;20140;-74
2024/01/30 14:01:56;;;;;;;9.52;4.93;;;;;;;13.18;100.00;101604.91;10574581;28;20047;-73
2024/01/30 14:07:20;;;;;;;3.22;2.45;;;;;;;12.71;100.00;101608.41;10555289;28;20849;-74
2024/01/30 14:12:44;;;;;;;8.18;3.90;;;;;;;12.60;100.00;101606.41;10553184;28;20480;-74
2024/01/30 14:18:08;;;;;;;10.07;6.85;;;;;;;12.33;100.00;101610.25;10577923;28;20043;-74
2024/01/30 14:23:32;;;;;;;7.50;5.38;;;;;;;12.08;100.00;101609.66;10578701;28;20046;-73
2024/01/30 14:28:55;;;;;;;8.20;4.97;;;;;;;11.73;100.00;101612.31;10574048;27;20067;-74
2024/01/30 14:34:18;;;;;;;7.35;5.63;;;;;;;11.26;100.00;101615.50;10594711;27;20043;-74
2024/01/30 14:39:42;;;;;;;6.53;3.35;;;;;;;10.67;100.00;101615.66;10575955;27;20367;-74
2024/01/30 14:45:06;;;;;;;5.93;4.20;;;;;;;10.32;100.00;101604.03;10615797;27;20047;-73
2024/01/30 14:50:29;;;;;;;8.45;6.32;;;;;;;9.91;100.00;101602.72;10608726;27;20066;-74
2024/01/30 14:55:53;;;;;;;8.65;5.78;;;;;;;9.70;100.00;101598.53;10621225;27;20058;-74
2024/01/30 15:01:15;;;;;;;12.52;7.43;;;;;;;9.68;100.00;101601.09;10592866;27;20070;-75
2024/01/30 15:06:38;;;;;;;11.20;6.07;;;;;;;9.79;100.00;101598.81;10574432;27;20479;-76
2024/01/30 15:12:02;;;;;;;13.82;6.72;;;;;;;9.95;100.00;101603.72;10571683;27;20055;-75
2024/01/30 15:17:25;;;;;;;9.98;5.20;;;;;;;10.09;100.00;101590.97;10563277;27;20061;-74
2024/01/30 15:22:48;;;;;;;11.93;7.97;;;;;;;10.13;100.00;101608.69;10567930;27;20051;-75
2024/01/30 15:28:13;;;;;;;14.00;10.25;;;;;;;10.13;100.00;101598.13;10619235;27;20051;-75
2024/01/30 15:33:36;;;;;;;8.07;5.28;;;;;;;9.82;100.00;101598.91;10586535;27;20047;-74
2024/01/30 15:38:58;;;;;;;13.80;10.35;;;;;;;9.48;100.00;101613.63;10564494;27;20079;-74
2024/01/30 15:44:22;;;;;;;12.10;10.00;;;;;;;9.38;100.00;101632.63;10578197;27;20472;-75
2024/01/30 15:49:45;;;;;;;9.98;7.72;;;;;;;9.72;100.00;101645.16;10517519;28;20048;-74
2024/01/30 15:55:08;;;;;;;9.73;8.68;;;;;;;9.78;100.00;101645.38;10556769;28;20396;-75
2024/01/30 16:00:32;;;;;;;17.92;14.70;;;;;;;9.90;100.00;101643.16;10528120;28;20060;-74
2024/01/30 16:05:55;;;;;;;11.57;9.50;;;;;;;9.94;100.00;101652.03;10554581;28;20071;-73
2024/01/30 16:11:18;;;;;;;21.60;17.38;;;;;;;9.29;100.00;101663.91;10533723;28;20571;-75
2024/01/30 16:16:42;;;;;;;20.42;13.73;;;;;;;9.06;100.00;101667.44;10536585;28;20059;-73
2024/01/30 16:22:04;;;;;;;13.15;11.07;;;;;;;9.05;100.00;101685.00;10521137;27;20143;-74
2024/01/30 16:27:27;;;;;;;7.53;6.18;;;;;;;9.08;100.00;101684.19;10536418;28;20048;-71
2024/01/30 16:32:52;;;;;;;14.00;8.45;;;;;;;9.03;100.00;101688.41;10547281;28;20056;-72
2024/01/30 16:38:14;;;;;;;25.20;21.98;;;;;;;9.22;100.00;101684.69;10535353;28;20043;-72
2024/01/30 16:43:37;;;;;;;18.45;16.52;;;;;;;9.25;100.00;101677.81;10554589;28;20035;-72
2024/01/30 16:49:01;;;;;;;21.88;17.33;;;;;;;9.11;100.00;101676.44;10556971;28;20040;-72
2024/01/30 16:54:23;;;;;;;17.73;15.85;;;;;;;9.03;100.00;101688.41;10544036;28;20097;-73
2024/01/30 16:59:46;;;;;;;16.67;14.60;;;;;;;8.82;100.00;101690.25;10526235;28;20113;-73
2024/01/30 17:05:10;;;;;;;9.88;8.98;;;;;;;8.64;100.00;101680.84;10541453;28;20446;-73
2024/01/30 17:10:32;;;;;;;18.02;16.13;;;;;;;8.33;100.00;101693.66;10516950;28;20040;-73
2024/01/30 17:15:55;;;;;;;23.20;20.77;;;;;;;7.99;100.00;101707.13;10529092;28;20131;-72
2024/01/30 17:21:22;;;;;;;11.43;7.88;;;;;;;8.17;100.00;101718.38;10550773;28;20056;-72
2024/01/30 17:26:45;;;;;;;23.02;19.42;;;;;;;8.07;100.00;101712.72;10489178;28;20040;-73
2024/01/30 17:32:08;;;;;;;19.73;17.63;;;;;;;7.95;100.00;101711.34;10537205;28;20047;-71
2024/01/30 17:37:33;;;;;;;15.48;12.95;;;;;;;7.88;100.00;101703.13;10525317;28;20067;-73
2024/01/30 17:42:56;;;;;;;224.75;83.68;;;;;;;7.89;100.00;101704.94;10515378;28;20044;-73
2024/01/30 17:48:19;;;;;;;17.67;12.90;;;;;;;7.74;100.00;101704.31;10540919;28;20142;-73
2024/01/30 17:53:44;;;;;;;16.05;11.02;;;;;;;7.78;100.00;101717.66;10545501;28;20043;-72
2024/01/30 17:59:06;;;;;;;16.30;8.18;;;;;;;7.98;100.00;101722.00;10568403;28;20060;-72
2024/01/30 18:04:29;;;;;;;11.75;5.90;;;;;;;7.86;100.00;101704.81;10577243;28;20047;-73
2024/01/30 18:09:53;;;;;;;10.32;6.22;;;;;;;7.83;100.00;101710.84;10564212;27;20055;-73
2024/01/30 18:15:16;;;;;;;16.55;10.55;;;;;;;8.18;100.00;101714.94;10565011;28;20093;-74
2024/01/30 18:20:38;;;;;;;42.15;35.75;;;;;;;8.46;100.00;101724.84;10542673;28;20036;-73
2024/01/30 18:26:02;;;;;;;46.88;41.17;;;;;;;8.46;100.00;101721.31;10541251;28;20047;-73
2024/01/30 18:31:25;;;;;;;13.20;8.65;;;;;;;8.17;100.00;101718.38;10541818;28;20043;-74
2024/01/30 18:36:47;;;;;;;10.45;6.97;;;;;;;7.99;100.00;101699.25;10538599;28;20039;-75
2024/01/30 18:42:11;;;;;;;10.60;6.15;;;;;;;7.82;100.00;101706.41;10541250;28;20489;-73
2024/01/30 18:47:34;;;;;;;14.55;9.55;;;;;;;7.43;100.00;101702.09;10558551;27;20043;-73
2024/01/30 18:52:57;;;;;;;6.80;4.38;;;;;;;7.34;100.00;101701.72;10580356;27;20054;-73
2024/01/30 18:58:21;;;;;;;8.68;6.18;;;;;;;7.14;100.00;101703.47;10568134;27;20047;-72
2024/01/30 19:03:44;;;;;;;9.60;6.30;;;;;;;7.08;100.00;101708.44;10571786;27;20494;-71
2024/01/30 19:09:07;;;;;;;6.07;4.60;;;;;;;6.92;100.00;101709.47;10566856;27;20103;-73
2024/01/30 19:14:33;;;;;;;7.40;6.07;;;;;;;6.76;100.00;101705.22;10577418;27;20039;-73
2024/01/30 19:19:55;;;;;;;8.27;6.65;;;;;;;6.69;100.00;101691.78;10580895;27;20070;-72
2024/01/30 19:25:18;;;;;;;9.20;5.60;;;;;;;6.82;100.00;101685.38;10574106;27;20039;-72
2024/01/30 19:30:42;;;;;;;14.48;12.57;;;;;;;7.11;100.00;101683.22;10607845;27;20073;-72
2024/01/30 19:36:05;;;;;;;11.40;9.50;;;;;;;7.42;100.00;101679.28;10610204;27;20107;-72
2024/01/30 19:41:28;;;;;;;13.88;10.00;;;;;;;7.58;100.00;101671.22;10582064;27;20549;-72
2024/01/30 19:46:52;;;;;;;20.50;17.58;;;;;;;7.70;100.00;101678.72;10545246;27;20100;-72
2024/01/30 19:52:15;;;;;;;37.83;29.42;;;;;;;7.70;100.00;101677.00;10548257;27;20039;-72
2024/01/30 19:57:37;;;;;;;35.67;29.27;;;;;;;7.27;100.00;101676.00;10541715;27;20113;-72
2024/01/30 20:03:01;;;;;;;41.67;33.60;;;;;;;7.00;100.00;101667.81;10547023;28;20047;-72
2024/01/30 20:08:24;;;;;;;26.60;20.70;;;;;;;6.93;100.00;101676.25;10543044;28;20407;-72
2024/01/30 20:13:47;;;;;;;10.98;6.47;;;;;;;6.86;100.00;101675.06;10543388;28;20064;-71
2024/01/30 20:19:11;;;;;;;23.52;16.80;;;;;;;7.07;100.00;101678.66;10536740;28;20126;-72
2024/01/30 20:24:34;;;;;;;12.75;8.95;;;;;;;7.10;100.00;101681.41;10549635;28;20072;-72
2024/01/30 20:29:56;;;;;;;18.20;11.32;;;;;;;7.33;100.00;101673.66;10532408;28;20043;-71
2024/01/30 20:35:21;;;;;;;23.65;18.00;;;;;;;7.21;100.00;101674.03;10530684;28;20540;-71
2024/01/30 20:40:43;;;;;;;21.80;11.77;;;;;;;7.19;100.00;101670.44;10537176;28;20109;-72
2024/01/30 20:46:06;;;;;;;14.73;6.88;;;;;;;7.00;100.00;101663.47;10557552;28;20182;-73
2024/01/30 20:51:30;;;;;;;11.88;7.07;;;;;;;7.14;100.00;101649.22;10545612;28;20031;-72
2024/01/30 20:56:53;;;;;;;14.07;8.77;;;;;;;7.05;100.00;101653.16;10555840;28;20058;-72
2024/01/30 21:02:16;;;;;;;24.20;14.82;;;;;;;6.95;100.00;101658.84;10555617;28;20051;-72
2024/01/30 21:07:39;;;;;;;16.70;8.27;;;;;;;7.28;100.00;101660.34;10569236;27;20051;-72
2024/01/30 21:13:03;;;;;;;9.90;5.25;;;;;;;7.55;100.00;101660.59;10553831;28;20040;-72
2024/01/30 21:18:25;;;;;;;12.85;6.60;;;;;;;7.33;100.00;101657.91;10522312;28;20044;-72
2024/01/30 21:23:50;;;;;;;9.68;6.85;;;;;;;7.60;100.00;101659.97;10554290;28;20720;-72
2024/01/30 21:29:12;;;;;;;22.08;15.15;;;;;;;7.70;100.00;101666.50;10543527;28;20055;-72
2024/01/30 21:34:35;;;;;;;25.40;22.27;;;;;;;7.72;100.00;101671.81;10557911;28;20044;-72
2024/01/30 21:39:59;;;;;;;20.92;13.68;;;;;;;7.94;100.00;101667.47;10529256;28;20080;-72
2024/01/30 21:45:23;;;;;;;19.40;13.05;;;;;;;7.89;100.00;101663.78;10557608;28;20048;-72
2024/01/30 21:50:46;;;;;;;20.75;10.98;;;;;;;7.65;100.00;101670.66;10557758;28;20050;-72
2024/01/30 21:56:10;;;;;;;31.83;24.33;;;;;;;7.50;100.00;101672.63;10526366;28;20044;-72
2024/01/30 22:01:34;;;;;;;34.28;26.35;;;;;;;7.50;100.00;101670.00;10551444;28;20055;-72
2024/01/30 22:06:56;;;;;;;22.33;12.73;;;;;;;7.57;100.00;101653.66;10542280;28;20175;-72
2024/01/30 22:12:21;;;;;;;11.93;9.43;;;;;;;7.58;100.00;101659.00;10539464;28;20446;-73
2024/01/30 22:17:43;;;;;;;16.80;11.88;;;;;;;7.28;100.00;101652.47;10530595;28;20052;-72
2024/01/30 22:23:06;;;;;;;21.70;10.95;;;;;;;7.16;100.00;101663.28;10516114;28;20135;-73
2024/01/30 22:28:30;;;;;;;29.13;16.20;;;;;;;7.05;100.00;101650.53;10516668;28;20052;-72
2024/01/30 22:33:53;;;;;;;22.90;13.15;;;;;;;6.97;100.00;101652.81;10516182;28;20056;-72
2024/01/30 22:39:16;;;;;;;15.30;10.35;;;;;;;6.85;100.00;101643.50;10557241;28;20130;-73
2024/01/30 22:44:40;;;;;;;13.82;6.57;;;;;;;7.02;100.00;101640.78;10558705;27;20568;-73
2024/01/30 22:50:04;;;;;;;7.95;4.82;;;;;;;7.00;100.00;101634.59;10606846;27;20042;-72
2024/01/30 22:55:27;;;;;;;5.60;3.47;;;;;;;7.03;100.00;101637.34;10592436;27;20039;-72
2024/01/30 23:00:51;;;;;;;28.88;14.65;;;;;;;7.09;100.00;101629.72;10592772;27;20059;-72
2024/01/30 23:06:14;;;;;;;5.00;3.08;;;;;;;7.12;100.00;101637.75;10601711;27;20108;-72
2024/01/30 23:11:36;;;;;;;7.35;3.70;;;;;;;7.12;100.00;101626.34;10620230;27;20046;-73
2024/01/30 23:17:00;;;;;;;11.10;4.85;;;;;;;6.88;100.00;101627.91;10610380;27;20050;-72
2024/01/30 23:22:23;;;;;;;7.57;4.43;;;;;;;6.64;100.00;101631.22;10568017;27;20051;-72
2024/01/30 23:27:46;;;;;;;8.32;4.10;;;;;;;6.49;100.00;101637.50;10565270;27;20066;-72
2024/01/30 23:33:10;;;;;;;4.82;3.05;;;;;;;6.64;100.00;101630.31;10555154;27;20080;-73
2024/01/30 23:38:32;;;;;;;5.32;3.13;;;;;;;6.63;100.00;101636.44;10573496;27;20043;-72
2024/01/30 23:43:56;;;;;;;5.10;3.25;;;;;;;6.69;100.00;101639.31;10601994;27;20078;-72
2024/01/30 23:49:21;;;;;;;7.13;3.72;;;;;;;6.54;100.00;101634.28;10586338;27;20468;-73
2024/01/30 23:54:44;;;;;;;11.18;5.60;;;;;;;6.44;100.00;101646.88;10572267;28;20135;-73
